Time;durP1;ratioP1;P1;durP2;ratioP2;P2;SDS_P1;SDS_P2;PMS_P1;PMS_P2;Temp;Humidity;BMP_temperature;BMP_pressure;BME280_temperature;BME280_humidity;BME280_pressure;Samples;Min_cycle;Max_cycle;Signal;HPM_P1;HPM_P2
2021/04/01 04:00:51;;;;;;;12.25;11.07;;;10.40;99.90;;;;;;5745074;23;21425;-68
2021/04/01 04:03:32;;;;;;;16.35;13.13;;;10.40;99.90;;;;;;4934411;29;20214;-68
2021/04/01 04:06:06;;;;;;;13.93;12.30;;;10.50;99.90;;;;;;4934785;29;20277;-68
2021/04/01 04:11:32;;;;;;;14.60;13.10;;;10.40;99.90;;;;;;4924644;29;20242;-68
2021/04/01 04:14:05;;;;;;;17.20;13.30;;;10.50;99.90;;;;;;4899575;29;20211;-68
2021/04/01 04:16:32;;;;;;;14.15;12.80;;;10.50;99.90;;;;;;4901030;29;20595;-68
2021/04/01 04:18:58;;;;;;;15.40;13.48;;;10.50;99.90;;;;;;4912668;29;20199;-68
2021/04/01 04:21:25;;;;;;;16.25;13.00;;;10.50;99.90;;;;;;4901186;29;20234;-68
2021/04/01 04:23:51;;;;;;;15.55;12.95;;;10.50;99.90;;;;;;4904049;29;20568;-67
2021/04/01 04:26:18;;;;;;;19.60;13.27;;;10.60;99.90;;;;;;4907488;29;20594;-68
2021/04/01 04:28:45;;;;;;;19.13;13.93;;;10.60;99.90;;;;;;4902687;29;20204;-68
2021/04/01 04:31:11;;;;;;;17.05;13.98;;;10.60;99.90;;;;;;4908983;29;20545;-68
2021/04/01 04:33:38;;;;;;;22.20;15.07;;;10.60;99.90;;;;;;4900271;29;20754;-69
2021/04/01 04:36:06;;;;;;;19.50;14.32;;;10.60;99.90;;;;;;4909273;29;20219;-69
2021/04/01 04:38:32;;;;;;;20.58;14.95;;;10.60;99.90;;;;;;4900528;29;20203;-67
2021/04/01 04:40:59;;;;;;;20.02;15.05;;;10.60;99.90;;;;;;4909172;29;20227;-68
2021/04/01 04:43:26;;;;;;;18.58;14.20;;;10.60;99.90;;;;;;4899945;29;20664;-67
2021/04/01 04:45:53;;;;;;;23.17;15.93;;;10.60;99.90;;;;;;4913907;29;20202;-67
2021/04/01 04:48:20;;;;;;;19.05;16.20;;;10.60;99.90;;;;;;4917901;29;20219;-68
2021/04/01 04:50:47;;;;;;;22.63;15.10;;;10.60;99.90;;;;;;4917738;29;20255;-68
2021/04/01 04:53:14;;;;;;;17.67;15.30;;;10.70;99.90;;;;;;4918722;29;20223;-69
2021/04/01 04:55:41;;;;;;;17.80;14.15;;;10.70;99.90;;;;;;4912718;29;20227;-68
2021/04/01 04:58:11;;;;;;;19.42;14.88;;;10.70;99.90;;;;;;4899404;29;20215;-68
2021/04/01 05:06:06;;;;;;;18.52;14.50;;;10.70;99.90;;;;;;4909009;29;20731;-68
2021/04/01 05:08:33;;;;;;;19.92;14.07;;;10.70;99.90;;;;;;4899103;29;20699;-68
2021/04/01 05:10:59;;;;;;;20.15;14.35;;;10.70;99.90;;;;;;4908277;29;20574;-68
2021/04/01 05:13:25;;;;;;;19.98;15.45;;;10.70;99.90;;;;;;4899501;29;20215;-68
2021/04/01 05:15:52;;;;;;;22.10;16.73;;;10.70;99.90;;;;;;4908738;29;20206;-68
2021/04/01 05:21:04;;;;;;;17.83;15.32;;;10.70;99.90;;;;;;4907930;29;20581;-68
2021/04/01 05:23:34;;;;;;;23.10;15.70;;;10.80;99.90;;;;;;4917603;29;20234;-68
2021/04/01 05:26:38;;;;;;;21.80;16.38;;;10.80;99.90;;;;;;4907061;29;20663;-68
2021/04/01 05:29:06;;;;;;;26.40;18.27;;;10.80;99.90;;;;;;4918299;29;20293;-68
2021/04/01 05:31:35;;;;;;;23.88;16.95;;;10.80;99.90;;;;;;4907564;29;20317;-68
2021/04/01 05:34:01;;;;;;;25.30;16.83;;;10.90;99.90;;;;;;4917224;29;20229;-68
2021/04/01 05:36:29;;;;;;;24.90;17.40;;;10.90;99.90;;;;;;4907470;29;20218;-68
2021/04/01 05:38:57;;;;;;;20.65;16.42;;;10.90;99.90;;;;;;4906495;29;20576;-68
2021/04/01 05:41:25;;;;;;;21.17;14.90;;;11.00;99.90;;;;;;4904599;29;20229;-68
2021/04/01 05:43:58;;;;;;;22.83;16.70;;;11.00;99.90;;;;;;4907125;29;20214;-68
2021/04/01 05:46:28;;;;;;;25.92;17.02;;;11.10;99.90;;;;;;4904384;29;20203;-68
2021/04/01 05:49:04;;;;;;;30.95;18.77;;;11.10;99.90;;;;;;4909394;29;20222;-68
2021/04/01 05:57:40;;;;;;;33.35;21.40;;;11.20;99.90;;;;;;4898511;29;20211;-68
2021/04/01 06:03:17;;;;;;;39.65;24.75;;;11.30;99.90;;;;;;4914878;29;20342;-67
2021/04/01 06:05:45;;;;;;;37.80;24.80;;;11.40;99.90;;;;;;4911750;29;20207;-68
2021/04/01 06:08:15;;;;;;;47.53;26.73;;;11.50;99.90;;;;;;4900819;29;20215;-68
2021/04/01 06:10:43;;;;;;;36.22;22.98;;;11.60;99.90;;;;;;4900860;29;20627;-68
2021/04/01 06:13:11;;;;;;;30.17;20.60;;;11.70;99.90;;;;;;4899916;29;20214;-68
2021/04/01 06:15:37;;;;;;;32.90;22.38;;;11.70;99.90;;;;;;4915575;29;20214;-67
2021/04/01 06:18:10;;;;;;;32.95;20.38;;;11.70;99.90;;;;;;4916360;29;20217;-67
2021/04/01 06:20:37;;;;;;;36.63;23.17;;;11.70;99.90;;;;;;4912282;29;20238;-68
2021/04/01 06:23:04;;;;;;;41.22;26.08;;;11.80;99.90;;;;;;4904296;29;20203;-68
2021/04/01 06:25:34;;;;;;;46.17;27.55;;;11.80;99.90;;;;;;4910471;29;20203;-67
2021/04/01 06:28:05;;;;;;;47.30;28.83;;;11.90;99.90;;;;;;4917190;29;20215;-67
2021/04/01 06:30:43;;;;;;;56.50;30.95;;;11.90;99.90;;;;;;4903981;29;20231;-69
2021/04/01 06:33:11;;;;;;;50.25;29.77;;;12.00;99.90;;;;;;4897669;29;20211;-68
2021/04/01 06:35:43;;;;;;;54.28;31.23;;;12.00;99.90;;;;;;4903404;29;20303;-67
2021/04/01 06:38:26;;;;;;;55.35;31.35;;;12.10;99.90;;;;;;4900954;29;20210;-67
2021/04/01 06:40:55;;;;;;;48.40;28.17;;;12.10;99.90;;;;;;4911420;29;20226;-67
2021/04/01 06:43:34;;;;;;;48.20;29.13;;;12.20;99.90;;;;;;4910625;29;20583;-68
2021/04/01 06:46:03;;;;;;;55.40;32.17;;;12.30;99.90;;;;;;4898289;29;20270;-68
2021/04/01 06:48:57;;;;;;;54.03;29.88;;;12.40;99.90;;;;;;4897716;29;20303;-68
2021/04/01 06:51:28;;;;;;;51.17;31.02;;;12.50;99.90;;;;;;4897904;29;20823;-69
2021/04/01 06:54:02;;;;;;;54.42;31.17;;;12.60;99.90;;;;;;4900379;29;20207;-69
2021/04/01 06:56:39;;;;;;;51.80;30.00;;;12.70;99.90;;;;;;4910628;29;20202;-69
2021/04/01 06:59:13;;;;;;;53.00;29.67;;;12.80;99.90;;;;;;4917048;29;20305;-69
2021/04/01 07:01:47;;;;;;;50.87;30.07;;;12.90;99.90;;;;;;4917882;29;20234;-69
2021/04/01 07:04:14;;;;;;;56.70;33.50;;;13.00;99.90;;;;;;4920502;29;20465;-68
2021/04/01 07:06:43;;;;;;;51.10;30.50;;;13.10;99.90;;;;;;4922442;29;20569;-68
2021/04/01 07:09:30;;;;;;;54.00;32.30;;;13.20;99.90;;;;;;4920708;29;20479;-69
2021/04/01 07:12:10;;;;;;;57.83;32.40;;;13.30;99.90;;;;;;4915463;29;20494;-69
2021/04/01 07:14:41;;;;;;;60.00;33.43;;;13.40;99.90;;;;;;4899840;29;20952;-69
2021/04/01 07:17:14;;;;;;;57.70;35.40;;;13.50;99.90;;;;;;4898598;29;20510;-69
2021/04/01 07:19:55;;;;;;;57.33;33.57;;;13.60;99.90;;;;;;4898891;29;20503;-69
2021/04/01 07:31:53;;;;;;;54.27;30.50;;;13.70;99.90;;;;;;4905456;29;20633;-67
2021/04/01 07:47:58;;;;;;;52.33;32.08;;;13.60;99.90;;;;;;4898458;29;20463;-68
2021/04/01 07:50:27;;;;;;;59.73;34.10;;;13.60;99.90;;;;;;4911848;29;20230;-69
2021/04/01 07:52:57;;;;;;;50.80;32.57;;;13.60;99.90;;;;;;4914011;29;20462;-68
2021/04/01 07:55:28;;;;;;;59.33;31.52;;;13.60;99.90;;;;;;4908286;29;20834;-68
2021/04/01 07:58:14;;;;;;;55.67;31.52;;;13.60;99.90;;;;;;4901382;29;20207;-67
2021/04/01 08:00:46;;;;;;;53.85;33.35;;;13.60;99.90;;;;;;4913056;29;20234;-67
2021/04/01 08:06:23;;;;;;;56.50;32.90;;;13.60;99.90;;;;;;4917700;29;20216;-67
2021/04/01 08:08:52;;;;;;;53.53;32.30;;;13.60;99.90;;;;;;4919452;29;20663;-67
2021/04/01 08:11:25;;;;;;;56.97;33.80;;;13.60;99.90;;;;;;4902202;29;20901;-67
2021/04/01 08:14:02;;;;;;;54.60;32.47;;;13.70;99.90;;;;;;4906712;29;20470;-67
2021/04/01 08:16:30;;;;;;;59.70;34.15;;;13.70;99.90;;;;;;4905676;29;20462;-67
2021/04/01 08:18:59;;;;;;;60.83;36.22;;;13.80;99.90;;;;;;4907734;29;20629;-67
2021/04/01 08:21:27;;;;;;;58.50;34.53;;;13.80;99.90;;;;;;4916429;29;20273;-67
2021/04/01 08:24:01;;;;;;;61.58;35.47;;;13.70;99.90;;;;;;4914424;29;20211;-68
2021/04/01 08:26:40;;;;;;;58.72;34.13;;;13.70;99.90;;;;;;4917170;29;20210;-67
2021/04/01 08:29:26;;;;;;;62.25;35.17;;;13.70;99.90;;;;;;4907422;29;20199;-67
2021/04/01 08:32:01;;;;;;;61.15;36.42;;;13.70;99.90;;;;;;4908185;29;20707;-67
2021/04/01 08:34:38;;;;;;;62.65;36.30;;;13.70;99.90;;;;;;4914587;29;20209;-67
2021/04/01 08:37:06;;;;;;;66.30;35.20;;;13.60;99.90;;;;;;4904661;29;20302;-68
2021/04/01 08:39:35;;;;;;;65.47;38.22;;;13.60;99.90;;;;;;4911913;29;20230;-68
2021/04/01 08:42:43;;;;;;;65.72;36.28;;;13.70;99.90;;;;;;4906102;29;20229;-68
2021/04/01 08:45:35;;;;;;;64.82;37.63;;;13.70;99.90;;;;;;4917322;29;20206;-68
2021/04/01 08:48:41;;;;;;;65.10;36.55;;;13.90;99.90;;;;;;4894003;29;20224;-69
2021/04/01 08:51:38;;;;;;;68.57;37.42;;;14.10;99.90;;;;;;4884398;29;20246;-69
2021/04/01 08:54:12;;;;;;;61.80;37.67;;;14.10;99.90;;;;;;4906548;29;20621;-67
2021/04/01 08:56:46;;;;;;;68.15;37.85;;;14.10;99.90;;;;;;4909839;29;20214;-67
2021/04/01 08:59:23;;;;;;;68.10;37.67;;;14.00;99.90;;;;;;4908309;29;20239;-68
2021/04/01 09:01:51;;;;;;;66.30;38.42;;;14.00;99.90;;;;;;4908331;29;21142;-68
2021/04/01 09:04:22;;;;;;;68.33;38.77;;;14.10;99.90;;;;;;4909953;29;20695;-68
2021/04/01 09:06:56;;;;;;;70.93;42.80;;;14.30;99.90;;;;;;4901397;29;20480;-68
2021/04/01 09:09:29;;;;;;;68.53;39.00;;;14.30;99.90;;;;;;4912258;29;20474;-68
2021/04/01 09:12:06;;;;;;;58.53;37.20;;;14.30;99.90;;;;;;4910372;29;20495;-67
2021/04/01 09:14:34;;;;;;;68.20;38.17;;;14.40;99.90;;;;;;4902708;29;20526;-68
2021/04/01 09:17:06;;;;;;;68.60;39.00;;;14.40;99.90;;;;;;4901995;29;20936;-68
2021/04/01 09:19:33;;;;;;;62.13;36.75;;;14.30;99.90;;;;;;4903521;29;20514;-67
2021/04/01 09:22:00;;;;;;;59.93;37.00;;;14.30;99.90;;;;;;4913919;29;20234;-68
2021/04/01 09:24:32;;;;;;;66.57;39.57;;;14.30;99.90;;;;;;4909983;29;20475;-69
2021/04/01 09:27:01;;;;;;;64.80;38.50;;;14.40;99.90;;;;;;4905201;29;20471;-68
2021/04/01 09:29:38;;;;;;;69.93;41.88;;;14.40;99.90;;;;;;4907762;29;20536;-68
2021/04/01 09:32:05;;;;;;;70.60;38.70;;;14.30;99.90;;;;;;4907308;29;20733;-66
2021/04/01 09:34:32;;;;;;;60.13;37.70;;;14.40;99.90;;;;;;4913210;29;20218;-68
2021/04/01 09:37:10;;;;;;;58.33;35.10;;;14.50;99.90;;;;;;4908109;29;20483;-68
2021/04/01 09:39:37;;;;;;;50.50;31.30;;;14.60;99.90;;;;;;4902256;29;20463;-68
2021/04/01 09:42:07;;;;;;;43.73;30.33;;;14.60;99.90;;;;;;4904227;29;20490;-68
2021/04/01 09:44:34;;;;;;;55.67;31.70;;;14.60;99.90;;;;;;4909070;29;20459;-68
2021/04/01 09:47:07;;;;;;;46.43;31.27;;;14.60;99.90;;;;;;4904829;29;20825;-68
2021/04/01 09:49:44;;;;;;;51.30;31.00;;;14.50;99.90;;;;;;4898578;29;20868;-68
2021/04/01 09:52:14;;;;;;;52.57;30.70;;;14.50;99.90;;;;;;4910768;29;20510;-67
2021/04/01 09:54:45;;;;;;;50.30;29.33;;;14.50;99.90;;;;;;4899916;29;20941;-68
2021/04/01 09:57:14;;;;;;;49.33;29.27;;;14.50;99.90;;;;;;4911595;29;20967;-67
2021/04/01 09:59:48;;;;;;;45.73;29.37;;;14.60;99.90;;;;;;4917048;29;20547;-67
2021/04/01 10:02:28;;;;;;;43.50;26.80;;;14.50;99.90;;;;;;4913782;29;20489;-68
2021/04/01 10:05:01;;;;;;;42.83;27.50;;;14.50;99.90;;;;;;4916820;29;20476;-68
2021/04/01 10:07:31;;;;;;;45.13;27.55;;;14.40;99.90;;;;;;4903339;29;20471;-67
2021/04/01 10:09:58;;;;;;;48.50;29.02;;;14.20;99.90;;;;;;4907339;29;20214;-67
2021/04/01 10:12:34;;;;;;;40.17;26.40;;;14.20;99.90;;;;;;4903114;29;20235;-68
2021/04/01 10:15:02;;;;;;;48.63;28.97;;;14.30;99.90;;;;;;4900177;29;20467;-67
2021/04/01 10:17:29;;;;;;;43.03;28.47;;;14.30;99.90;;;;;;4909350;29;20799;-69
2021/04/01 10:19:58;;;;;;;46.03;29.40;;;14.30;99.90;;;;;;4909969;29;20467;-69
2021/04/01 10:22:26;;;;;;;43.43;28.60;;;14.30;99.90;;;;;;4906972;29;20488;-68
2021/04/01 10:25:09;;;;;;;44.57;28.30;;;14.40;99.90;;;;;;4907909;29;20471;-68
2021/04/01 10:27:44;;;;;;;48.13;26.20;;;14.40;99.90;;;;;;4907877;29;20593;-68
2021/04/01 10:30:12;;;;;;;35.57;25.00;;;14.40;99.90;;;;;;4915969;29;20541;-68
2021/04/01 10:32:41;;;;;;;35.90;24.27;;;14.50;99.90;;;;;;4915395;29;20521;-68
2021/04/01 10:35:10;;;;;;;34.77;22.60;;;14.60;99.90;;;;;;4902256;29;20463;-68
2021/04/01 10:37:37;;;;;;;31.10;20.60;;;14.60;99.90;;;;;;4906709;29;20475;-72
2021/04/01 10:40:08;;;;;;;34.60;21.87;;;14.50;99.90;;;;;;4906873;29;20481;-68
2021/04/01 10:42:35;;;;;;;31.25;19.23;;;14.60;99.90;;;;;;4897374;29;20872;-67
2021/04/01 10:45:06;;;;;;;23.53;17.13;;;14.50;99.90;;;;;;4903868;29;20583;-68
2021/04/01 10:47:56;;;;;;;23.97;15.27;;;14.50;99.90;;;;;;4901784;29;20483;-68
2021/04/01 10:50:26;;;;;;;27.87;18.30;;;14.50;99.90;;;;;;4904440;29;20555;-69
2021/04/01 10:52:53;;;;;;;25.63;17.30;;;14.50;99.90;;;;;;4902878;29;20555;-69
2021/04/01 10:55:33;;;;;;;28.67;17.80;;;14.60;99.90;;;;;;4914900;29;20485;-69
2021/04/01 10:58:10;;;;;;;24.03;15.67;;;14.90;99.90;;;;;;4903648;29;20483;-70
2021/04/01 11:00:36;;;;;;;21.10;14.47;;;15.10;99.90;;;;;;4906198;29;20482;-70
2021/04/01 11:03:05;;;;;;;19.73;15.20;;;15.00;99.90;;;;;;4898425;29;20498;-70
2021/04/01 11:05:33;;;;;;;21.60;15.07;;;15.10;99.90;;;;;;4904272;29;20459;-69
2021/04/01 11:08:05;;;;;;;21.63;15.27;;;15.30;99.90;;;;;;4903114;29;21215;-69
2021/04/01 11:10:34;;;;;;;23.63;16.93;;;15.30;99.90;;;;;;4911899;29;20494;-69
2021/04/01 11:13:02;;;;;;;26.13;17.67;;;15.10;99.90;;;;;;4908044;29;20475;-69
2021/04/01 11:15:30;;;;;;;24.30;16.77;;;15.00;99.90;;;;;;4909617;29;20545;-70
2021/04/01 11:18:01;;;;;;;25.60;17.33;;;14.80;99.90;;;;;;4913543;29;20467;-69
2021/04/01 11:20:31;;;;;;;23.70;15.57;;;14.70;99.90;;;;;;4909744;29;20490;-70
2021/04/01 11:23:03;;;;;;;22.35;16.20;;;14.40;99.90;;;;;;4913611;29;20462;-70
2021/04/01 11:25:29;;;;;;;23.97;16.93;;;14.30;99.90;;;;;;4913761;29;20221;-68
2021/04/01 11:27:56;;;;;;;20.63;14.32;;;14.20;99.90;;;;;;4897168;29;20474;-68
2021/04/01 11:30:38;;;;;;;20.08;15.20;;;14.00;99.90;;;;;;4908515;29;20297;-67
2021/04/01 11:33:06;;;;;;;18.10;14.80;;;13.80;99.90;;;;;;4915100;29;20277;-67
2021/04/01 11:35:33;;;;;;;19.45;15.65;;;13.70;99.90;;;;;;4914905;29;20799;-66
2021/04/01 11:38:00;;;;;;;22.00;13.40;;;13.70;99.90;;;;;;4916313;29;20210;-70
2021/04/01 11:40:27;;;;;;;17.33;12.25;;;13.60;99.90;;;;;;4913393;29;20718;-68
2021/04/01 11:42:54;;;;;;;10.90;9.80;;;13.00;99.90;;;;;;4912437;29;20269;-67
2021/04/01 11:45:31;;;;;;;12.93;9.30;;;12.50;99.90;;;;;;4904984;29;20235;-67
2021/04/01 11:47:58;;;;;;;15.43;10.18;;;12.30;99.90;;;;;;4910436;29;20701;-67
2021/04/01 11:50:26;;;;;;;11.75;10.35;;;12.00;99.90;;;;;;4905404;29;20231;-68
2021/04/01 11:52:57;;;;;;;11.90;9.40;;;11.90;99.90;;;;;;4912821;29;20663;-68
2021/04/01 11:55:23;;;;;;;10.23;8.93;;;11.80;99.90;;;;;;4916902;29;20299;-70
2021/04/01 11:57:50;;;;;;;17.85;9.38;;;11.70;99.90;;;;;;4915288;29;20210;-69
2021/04/01 12:00:20;;;;;;;11.57;10.38;;;11.60;99.90;;;;;;4907067;29;20218;-68
2021/04/01 12:02:52;;;;;;;10.82;8.60;;;11.50;99.90;;;;;;4911517;29;20213;-70
2021/04/01 12:05:19;;;;;;;7.68;6.65;;;11.30;99.90;;;;;;4914546;29;20203;-69
2021/04/01 12:07:45;;;;;;;6.35;5.70;;;11.30;99.90;;;;;;4901059;29;20691;-69
2021/04/01 12:10:13;;;;;;;8.85;5.97;;;11.20;99.90;;;;;;4902701;29;20207;-71
2021/04/01 12:12:40;;;;;;;6.38;5.78;;;11.10;99.90;;;;;;4909917;29;20218;-69
2021/04/01 12:15:07;;;;;;;6.32;5.20;;;11.10;99.90;;;;;;4907888;29;20203;-69
2021/04/01 12:17:35;;;;;;;5.60;5.07;;;11.10;99.90;;;;;;4912599;29;20214;-69
2021/04/01 12:20:06;;;;;;;5.97;5.40;;;11.20;99.90;;;;;;4917048;29;20206;-69
2021/04/01 12:22:36;;;;;;;6.13;5.53;;;11.30;99.90;;;;;;4911471;29;20303;-69
2021/04/01 12:25:04;;;;;;;5.72;5.22;;;11.40;99.90;;;;;;4921036;29;20220;-69
2021/04/01 12:27:31;;;;;;;5.60;5.20;;;11.50;99.90;;;;;;4912845;29;20251;-69
2021/04/01 12:29:57;;;;;;;4.63;4.32;;;11.60;99.90;;;;;;4909923;29;20215;-70
2021/04/01 12:32:28;;;;;;;4.80;4.40;;;11.70;99.90;;;;;;4900122;29;20629;-70
2021/04/01 12:35:11;;;;;;;5.00;4.38;;;11.60;99.90;;;;;;4918795;29;20238;-71
2021/04/01 12:37:38;;;;;;;4.55;4.15;;;11.70;99.90;;;;;;4903868;29;20217;-71
2021/04/01 12:40:18;;;;;;;4.60;4.20;;;11.70;99.90;;;;;;4903323;29;20223;-69
2021/04/01 12:42:45;;;;;;;3.83;3.55;;;11.90;99.90;;;;;;4905556;29;20207;-69
2021/04/01 12:45:19;;;;;;;4.13;3.78;;;12.00;99.90;;;;;;4918780;29;20202;-69
2021/04/01 12:47:46;;;;;;;3.78;3.58;;;12.10;99.90;;;;;;4905640;29;20202;-70
2021/04/01 12:50:15;;;;;;;3.60;3.40;;;12.20;99.90;;;;;;4901533;29;20223;-70
2021/04/01 12:52:46;;;;;;;2.50;2.40;;;12.40;99.90;;;;;;4913286;29;20207;-70
2021/04/01 12:55:25;;;;;;;3.90;3.58;;;12.70;99.90;;;;;;4902010;29;20222;-70
2021/04/01 12:57:51;;;;;;;3.60;3.40;;;12.80;99.90;;;;;;4917811;29;20202;-69
2021/04/01 13:00:27;;;;;;;3.55;3.35;;;12.80;99.90;;;;;;4899623;29;20554;-68
2021/04/01 13:02:54;;;;;;;3.00;2.90;;;12.60;99.90;;;;;;4911492;29;20270;-70
2021/04/01 13:05:22;;;;;;;3.33;3.22;;;12.60;99.90;;;;;;4911701;29;20270;-70
2021/04/01 13:07:52;;;;;;;3.20;3.00;;;12.50;99.90;;;;;;4901446;29;20306;-69
2021/04/01 13:12:58;;;;;;;3.47;3.33;;;12.50;99.90;;;;;;4903652;29;20204;-69
2021/04/01 13:15:25;;;;;;;2.80;2.70;;;12.40;99.90;;;;;;4917488;29;20218;-69
2021/04/01 13:17:51;;;;;;;4.18;3.25;;;12.10;99.90;;;;;;4902305;29;20223;-69
2021/04/01 13:20:18;;;;;;;3.05;2.85;;;12.10;99.90;;;;;;4917183;29;20336;-69
2021/04/01 13:22:57;;;;;;;3.70;3.17;;;12.10;99.90;;;;;;4917317;29;20206;-69
2021/04/01 13:25:24;;;;;;;3.40;3.10;;;12.20;99.90;;;;;;4917836;29;20246;-69
2021/04/01 13:27:52;;;;;;;3.50;3.20;;;12.40;99.90;;;;;;4919460;29;20206;-68
2021/04/01 13:30:21;;;;;;;2.60;2.42;;;12.70;99.90;;;;;;4918144;29;20222;-68
2021/04/01 13:32:56;;;;;;;3.35;3.13;;;12.90;99.90;;;;;;4912820;29;20367;-69
2021/04/01 13:35:26;;;;;;;2.92;2.83;;;12.90;99.90;;;;;;4918633;29;20218;-69
2021/04/01 13:37:58;;;;;;;2.25;2.15;;;12.90;99.90;;;;;;4907640;29;20226;-68
2021/04/01 13:40:24;;;;;;;2.40;2.30;;;12.80;99.90;;;;;;4917616;29;20524;-69
2021/04/01 13:42:53;;;;;;;1.70;1.70;;;12.70;99.90;;;;;;4912353;29;20207;-69
2021/04/01 13:45:22;;;;;;;1.88;1.88;;;12.50;99.90;;;;;;4911763;29;20302;-69
2021/04/01 13:47:55;;;;;;;1.92;1.80;;;12.20;99.90;;;;;;4911659;29;20218;-69
2021/04/01 13:50:25;;;;;;;1.98;1.80;;;12.10;99.90;;;;;;4913277;29;20211;-71
2021/04/01 13:53:00;;;;;;;1.65;1.65;;;12.00;99.90;;;;;;4918602;29;20681;-69
2021/04/01 13:55:27;;;;;;;2.60;2.17;;;11.90;99.90;;;;;;4919410;29;20221;-71
2021/04/01 14:01:09;;;;;;;2.20;2.10;;;11.90;99.90;;;;;;4899042;29;20310;-68
2021/04/01 14:03:54;;;;;;;2.08;1.90;;;11.80;99.90;;;;;;4907279;29;20211;-70
2021/04/01 14:09:13;;;;;;;2.97;2.30;;;11.40;99.90;;;;;;4916819;29;20694;-69
2021/04/01 14:11:42;;;;;;;2.20;2.13;;;11.30;99.90;;;;;;4907983;29;20260;-70
2021/04/01 14:14:09;;;;;;;1.70;1.70;;;11.20;99.90;;;;;;4916176;29;20207;-69
2021/04/01 14:16:35;;;;;;;2.42;2.33;;;11.20;99.90;;;;;;4908042;29;20218;-70
2021/04/01 14:19:03;;;;;;;2.03;2.03;;;11.20;99.90;;;;;;4910977;29;20218;-70
2021/04/01 14:21:30;;;;;;;2.13;1.90;;;11.30;99.90;;;;;;4916446;29;20614;-70
2021/04/01 14:23:56;;;;;;;2.20;2.20;;;11.20;99.90;;;;;;4915785;29;20215;-70
2021/04/01 14:26:30;;;;;;;2.38;2.38;;;11.10;99.90;;;;;;4914331;29;20537;-70
2021/04/01 14:28:56;;;;;;;2.50;2.40;;;11.00;99.90;;;;;;4915944;29;20214;-68
2021/04/01 14:31:22;;;;;;;2.42;2.42;;;10.90;99.90;;;;;;4914390;29;20238;-69
2021/04/01 14:33:50;;;;;;;2.95;2.65;;;10.90;99.90;;;;;;4907525;29;20262;-68
2021/04/01 14:36:19;;;;;;;2.20;2.10;;;10.80;99.90;;;;;;4915815;29;20217;-68
2021/04/01 14:38:45;;;;;;;1.95;1.95;;;10.60;99.90;;;;;;4907723;29;20301;-68
2021/04/01 14:41:15;;;;;;;2.15;2.03;;;10.50;99.90;;;;;;4914911;29;20235;-70
2021/04/01 14:43:49;;;;;;;2.25;2.15;;;10.40;99.90;;;;;;4900234;29;20316;-68
2021/04/01 14:46:16;;;;;;;2.65;2.55;;;10.40;99.90;;;;;;4915983;29;20206;-69
2021/04/01 14:48:43;;;;;;;2.08;2.03;;;10.30;99.90;;;;;;4907827;29;20215;-69
2021/04/01 14:51:10;;;;;;;1.70;1.70;;;10.30;99.90;;;;;;4916388;29;20222;-69
2021/04/01 14:53:43;;;;;;;1.55;1.45;;;10.10;99.90;;;;;;4905912;29;20236;-68
2021/04/01 14:56:12;;;;;;;1.70;1.70;;;10.00;99.90;;;;;;4896940;29;20207;-69
2021/04/01 14:58:39;;;;;;;3.88;2.15;;;10.00;99.90;;;;;;4906140;29;20308;-69
2021/04/01 15:01:08;;;;;;;1.75;1.75;;;10.00;99.90;;;;;;4915353;29;20238;-69
2021/04/01 15:03:35;;;;;;;1.83;1.70;;;10.00;99.90;;;;;;4907393;29;20318;-69
2021/04/01 15:06:02;;;;;;;2.10;2.10;;;10.00;99.90;;;;;;4916480;29;20218;-69
2021/04/01 15:08:31;;;;;;;2.47;2.05;;;10.00;99.90;;;;;;4915375;29;20311;-69
2021/04/01 15:10:57;;;;;;;2.58;2.38;;;10.00;99.90;;;;;;4903610;29;20715;-69
2021/04/01 15:13:23;;;;;;;1.77;1.67;;;10.10;99.90;;;;;;4907695;29;20207;-69
2021/04/01 15:15:50;;;;;;;1.95;1.80;;;10.10;99.90;;;;;;4914122;29;20223;-70
2021/04/01 15:18:17;;;;;;;1.80;1.80;;;10.10;99.90;;;;;;4904006;29;20206;-70
2021/04/01 15:20:43;;;;;;;1.90;1.90;;;9.90;99.90;;;;;;4906604;29;20721;-69
2021/04/01 15:23:10;;;;;;;1.90;1.90;;;9.90;99.90;;;;;;4915367;29;20270;-69
2021/04/01 15:25:36;;;;;;;2.15;2.05;;;10.00;99.90;;;;;;4899134;29;20210;-69
2021/04/01 15:28:02;;;;;;;1.90;1.90;;;9.90;99.90;;;;;;4912865;29;20206;-69
2021/04/01 15:30:28;;;;;;;2.33;1.65;;;9.90;99.90;;;;;;4911726;29;20282;-69
2021/04/01 15:32:55;;;;;;;1.80;1.80;;;9.90;99.90;;;;;;4913853;29;20211;-69
2021/04/01 15:35:22;;;;;;;2.25;2.15;;;9.80;99.90;;;;;;4911936;29;20214;-69
2021/04/01 15:37:48;;;;;;;2.33;2.33;;;9.80;99.90;;;;;;4916289;29;20206;-69
2021/04/01 15:40:17;;;;;;;2.65;2.55;;;9.80;99.90;;;;;;4898880;29;20217;-69
2021/04/01 15:42:43;;;;;;;1.77;1.77;;;9.80;99.90;;;;;;4906523;29;20276;-69
2021/04/01 15:45:11;;;;;;;2.10;2.10;;;9.80;99.90;;;;;;4915299;29;20206;-70
2021/04/01 15:47:37;;;;;;;1.92;1.83;;;9.60;99.90;;;;;;4910775;29;20222;-70
2021/04/01 15:50:06;;;;;;;3.05;2.40;;;9.60;99.90;;;;;;4915810;29;20214;-70
2021/04/01 15:52:33;;;;;;;5.30;2.80;;;9.60;99.90;;;;;;4913551;29;20211;-70
2021/04/01 15:54:59;;;;;;;2.10;2.00;;;9.60;99.90;;;;;;4913362;29;20214;-70
2021/04/01 15:57:25;;;;;;;2.30;2.10;;;9.60;99.90;;;;;;4908495;29;20297;-70
2021/04/01 15:59:51;;;;;;;2.03;2.00;;;9.60;99.90;;;;;;4914274;29;20219;-69
2021/04/01 16:02:18;;;;;;;2.50;2.40;;;9.60;99.90;;;;;;4907459;29;20234;-70
2021/04/01 16:04:44;;;;;;;3.90;2.95;;;9.60;99.90;;;;;;4915102;29;20664;-70
2021/04/01 16:07:10;;;;;;;3.42;3.15;;;9.60;99.90;;;;;;4909979;29;20209;-69
2021/04/01 16:09:38;;;;;;;3.08;2.83;;;9.70;99.90;;;;;;4908493;29;20214;-69
2021/04/01 16:12:06;;;;;;;4.28;3.95;;;9.80;99.90;;;;;;4914293;29;20290;-68
2021/04/01 16:14:32;;;;;;;2.95;2.95;;;9.90;99.90;;;;;;4915237;29;20262;-70
2021/04/01 16:16:58;;;;;;;4.70;4.28;;;9.90;99.90;;;;;;4904328;29;20207;-69
2021/04/01 16:19:25;;;;;;;2.38;2.20;;;9.90;99.90;;;;;;4904163;29;20656;-70
2021/04/01 16:21:51;;;;;;;2.95;2.75;;;9.90;99.90;;;;;;4911450;29;20226;-70
2021/04/01 16:24:18;;;;;;;2.53;2.42;;;9.90;99.90;;;;;;4904093;29;20238;-70
2021/04/01 16:26:45;;;;;;;6.53;2.60;;;9.80;99.90;;;;;;4917175;29;20210;-70
2021/04/01 16:29:11;;;;;;;2.17;2.05;;;9.80;99.90;;;;;;4907564;29;20262;-69
2021/04/01 16:31:39;;;;;;;2.67;2.67;;;9.80;99.90;;;;;;4903897;29;20227;-69
2021/04/01 16:34:05;;;;;;;2.47;2.38;;;9.70;99.90;;;;;;4909599;29;20203;-70
2021/04/01 16:36:32;;;;;;;2.45;2.28;;;9.70;99.90;;;;;;4915247;29;20203;-69
2021/04/01 16:38:59;;;;;;;2.80;2.70;;;9.70;99.90;;;;;;4914075;29;20253;-71
2021/04/01 16:41:26;;;;;;;3.15;2.95;;;9.70;99.90;;;;;;4907544;29;20740;-69
2021/04/01 16:43:53;;;;;;;1.90;1.90;;;9.70;99.90;;;;;;4911356;29;20301;-69
2021/04/01 16:46:20;;;;;;;2.40;2.22;;;9.70;99.90;;;;;;4914595;29;20308;-70
2021/04/01 16:48:47;;;;;;;2.20;2.20;;;9.80;99.90;;;;;;4916034;29;20214;-70
2021/04/01 16:51:15;;;;;;;2.28;2.08;;;9.80;99.90;;;;;;4904601;29;20239;-71
2021/04/01 16:53:44;;;;;;;3.30;2.85;;;9.80;99.90;;;;;;4902537;29;20294;-70
2021/04/01 16:56:12;;;;;;;3.00;2.90;;;9.80;99.90;;;;;;4918846;29;20819;-69
2021/04/01 16:58:39;;;;;;;2.60;2.50;;;9.90;99.90;;;;;;4919715;29;20203;-68
2021/04/01 17:01:06;;;;;;;2.30;2.30;;;9.80;99.90;;;;;;4912490;29;20321;-72
2021/04/01 17:03:34;;;;;;;2.40;2.30;;;9.80;99.90;;;;;;4909855;29;20211;-69
2021/04/01 17:06:00;;;;;;;2.70;2.60;;;9.80;99.90;;;;;;4908607;29;20631;-69
2021/04/01 17:08:27;;;;;;;6.70;2.58;;;9.80;99.90;;;;;;4915660;29;20276;-69
2021/04/01 17:10:54;;;;;;;2.45;2.35;;;9.80;99.90;;;;;;4916489;29;20238;-69
2021/04/01 17:13:20;;;;;;;3.50;3.30;;;9.70;99.90;;;;;;4902815;29;20215;-69
2021/04/01 17:15:46;;;;;;;2.92;2.83;;;9.70;99.90;;;;;;4907298;29;20265;-68
2021/04/01 17:18:21;;;;;;;3.08;2.97;;;9.70;99.90;;;;;;4913812;29;20217;-68
2021/04/01 17:20:47;;;;;;;3.30;3.08;;;9.60;99.90;;;;;;4910788;29;20230;-68
2021/04/01 17:23:14;;;;;;;2.80;2.70;;;9.50;99.90;;;;;;4907070;29;20273;-68
2021/04/01 17:25:40;;;;;;;2.92;2.80;;;9.50;99.90;;;;;;4911379;29;20212;-69
2021/04/01 17:28:06;;;;;;;3.08;2.80;;;9.50;99.90;;;;;;4914844;29;20206;-69
2021/04/01 17:30:33;;;;;;;2.95;2.85;;;9.40;99.90;;;;;;4916521;29;20244;-69
2021/04/01 17:32:59;;;;;;;4.32;4.13;;;9.40;99.90;;;;;;4916144;29;20500;-68
2021/04/01 17:35:27;;;;;;;4.70;4.30;;;9.40;99.90;;;;;;4915758;29;20544;-69
2021/04/01 17:37:53;;;;;;;3.85;3.67;;;9.30;99.90;;;;;;4899217;29;20207;-70
2021/04/01 17:40:20;;;;;;;3.25;3.15;;;9.40;99.90;;;;;;4910802;29;20203;-69
2021/04/01 17:42:46;;;;;;;5.68;4.18;;;9.30;99.90;;;;;;4916373;29;20222;-69
2021/04/01 17:45:13;;;;;;;8.13;3.47;;;9.30;99.90;;;;;;4899959;29;20317;-69
2021/04/01 17:47:40;;;;;;;3.55;3.40;;;9.30;99.90;;;;;;4913138;29;20210;-70